Time;durP1;ratioP1;P1;durP2;ratioP2;P2;SDS_P1;SDS_P2;PMS_P1;PMS_P2;Temp;Humidity;BMP_temperature;BMP_pressure;BME280_temperature;BME280_humidity;BME280_pressure;Samples;Min_cycle;Max_cycle;Signal;HPM_P1;HPM_P2
2024/04/08 00:02:03;;;;;;;3.45;1.40;;;;;;;13.31;100.00;101283.13;4988393;28;20034;-78
2024/04/08 00:04:29;;;;;;;4.43;1.35;;;;;;;13.28;100.00;101267.56;5010109;28;20112;-78
2024/04/08 00:06:55;;;;;;;;;;;;;;;13.30;100.00;101268.09;5010612;28;20029;-77
2024/04/08 00:09:21;;;;;;;3.53;1.42;;;;;;;13.21;100.00;101263.53;4992822;28;20930;-78
2024/04/08 00:11:47;;;;;;;4.95;1.45;;;;;;;13.19;100.00;101262.97;5013473;28;20132;-78
2024/04/08 00:14:12;;;;;;;3.92;1.48;;;;;;;13.19;100.00;101271.84;5000656;28;20040;-76
2024/04/08 00:16:38;;;;;;;3.58;1.45;;;;;;;13.17;100.00;101278.59;4987149;28;20068;-76
2024/04/08 00:19:04;;;;;;;4.43;1.48;;;;;;;13.16;100.00;101271.59;5008900;28;20421;-76
2024/04/08 00:21:29;;;;;;;3.85;1.15;;;;;;;13.12;100.00;101277.50;5021993;28;20033;-76
2024/04/08 00:23:55;;;;;;;3.22;1.27;;;;;;;13.10;100.00;101262.75;4995441;28;20044;-78
2024/04/08 00:26:21;;;;;;;3.92;1.38;;;;;;;13.10;100.00;101262.75;5013899;28;20970;-77
2024/04/08 00:28:46;;;;;;;3.60;1.20;;;;;;;13.07;100.00;101269.47;5009171;28;20072;-77
2024/04/08 00:31:12;;;;;;;5.30;1.75;;;;;;;13.05;100.00;101271.63;4992098;28;20389;-75
2024/04/08 00:33:38;;;;;;;4.63;1.27;;;;;;;13.04;100.00;101271.91;5009391;28;20067;-76
2024/04/08 00:36:04;;;;;;;;;;;;;;;13.06;100.00;101280.47;5029292;28;20069;-76
2024/04/08 00:38:30;;;;;;;2.75;1.30;;;;;;;13.01;100.00;101265.19;5005545;28;19913;-80
2024/04/08 00:40:58;;;;;;;;;;;;;;;13.04;100.00;101269.22;5022956;28;20846;-77
2024/04/08 00:43:24;;;;;;;3.58;1.40;;;;;;;13.01;100.00;101277.84;5029835;28;20401;-79
2024/04/08 00:45:50;;;;;;;;;;;;;;;13.02;100.00;101274.06;5023324;28;20037;-78
2024/04/08 00:48:16;;;;;;;5.88;1.90;;;;;;;12.97;100.00;101272.19;5020078;28;19955;-73
2024/04/08 00:50:45;;;;;;;4.28;1.30;;;;;;;12.92;100.00;101271.38;5007289;28;20040;-80
2024/04/08 00:53:12;;;;;;;3.65;1.90;;;;;;;12.94;100.00;101277.28;5005268;28;20478;-78
2024/04/08 00:55:39;;;;;;;3.78;1.40;;;;;;;12.96;100.00;101277.84;5011909;28;20858;-77
2024/04/08 00:58:05;;;;;;;4.05;1.35;;;;;;;12.93;100.00;101283.75;5004554;28;20037;-80
2024/04/08 01:00:31;;;;;;;2.83;1.55;;;;;;;12.91;100.00;101275.16;5008946;28;20041;-75
2024/04/08 01:03:03;;;;;;;;;;;;;;;12.91;100.00;101269.78;5030591;28;20033;-78
2024/04/08 01:05:30;;;;;;;2.47;1.30;;;;;;;12.87;100.00;101274.06;5022749;28;19921;-77
2024/04/08 01:07:56;;;;;;;3.10;1.02;;;;;;;12.87;100.00;101268.69;5015348;28;20689;-77
2024/04/08 01:10:22;;;;;;;;;;;;;;;12.87;100.00;101269.53;5022929;28;20038;-77
2024/04/08 01:12:48;;;;;;;5.55;1.30;;;;;;;12.80;100.00;101264.44;5016939;28;19913;-78
2024/04/08 01:15:13;;;;;;;;;;;;;;;12.82;100.00;101262.28;5013156;28;20040;-78
2024/04/08 01:17:39;;;;;;;3.88;1.17;;;;;;;12.78;100.00;101257.69;5023148;28;20621;-76
2024/04/08 01:20:05;;;;;;;;;;;;;;;12.77;100.00;101246.13;5004392;28;20072;-74
2024/04/08 01:22:32;;;;;;;6.22;1.10;;;;;;;12.74;100.00;101253.97;5010224;28;20143;-77
2024/04/08 01:24:59;;;;;;;4.40;0.90;;;;;;;12.76;100.00;101244.53;4992872;28;20128;-78
2024/04/08 01:27:25;;;;;;;6.55;1.33;;;;;;;12.78;100.00;101241.56;5009671;28;20121;-77
2024/04/08 01:29:51;;;;;;;3.15;1.30;;;;;;;12.76;100.00;101246.41;5016816;28;20071;-77
2024/04/08 01:32:17;;;;;;;4.75;1.75;;;;;;;12.71;100.00;101239.16;5008665;28;20029;-79
2024/04/08 01:34:43;;;;;;;4.00;1.15;;;;;;;12.72;100.00;101240.78;5009412;28;20030;-77
2024/04/08 01:37:09;;;;;;;4.40;1.38;;;;;;;12.71;100.00;101244.53;4993240;28;20580;-77
2024/04/08 01:39:35;;;;;;;3.65;1.15;;;;;;;12.74;100.00;101243.22;5005533;28;20124;-77
2024/04/08 01:44:42;;;;;;;3.95;1.10;;;;;;;12.71;100.00;101206.91;5494365;25;20382;-77
2024/04/08 01:47:07;;;;;;;2.03;1.13;;;;;;;12.69;100.00;101190.25;5391747;26;20021;-77
2024/04/08 01:49:33;;;;;;;;;;;;;;;12.70;100.00;101165.00;5415148;26;20484;-79
2024/04/08 01:51:59;;;;;;;2.88;0.98;;;;;;;12.67;100.00;101164.75;5402771;26;19946;-77
2024/04/08 01:54:34;;;;;;;7.72;1.30;;;;;;;12.67;100.00;101157.50;5455263;26;20007;-79
2024/04/08 01:57:00;;;;;;;4.00;1.10;;;;;;;12.67;100.00;101156.69;5406024;26;20456;-78
2024/04/08 01:59:25;;;;;;;4.28;1.30;;;;;;;12.66;100.00;101165.81;5440582;26;20105;-78
2024/04/08 02:01:51;;;;;;;4.85;1.40;;;;;;;12.66;100.00;101166.63;5454532;26;20034;-78
2024/04/08 02:04:17;;;;;;;4.38;1.55;;;;;;;12.68;100.00;101153.72;5448119;26;20029;-77
2024/04/08 02:06:43;;;;;;;2.97;1.30;;;;;;;12.66;100.00;101144.31;5447648;26;20018;-78
2024/04/08 02:09:08;;;;;;;;;;;;;;;12.66;100.00;101149.69;5443365;26;20003;-75
2024/04/08 02:11:34;;;;;;;8.05;1.60;;;;;;;12.62;100.00;101141.38;5442939;26;19934;-77
2024/04/08 02:13:59;;;;;;;3.72;1.23;;;;;;;12.63;100.00;101136.81;5415555;26;20007;-79
2024/04/08 02:16:25;;;;;;;4.90;1.40;;;;;;;12.63;100.00;101134.13;5434959;26;19998;-77
2024/04/08 02:18:51;;;;;;;3.40;1.17;;;;;;;12.64;100.00;101133.84;5421203;26;20007;-76
2024/04/08 02:21:16;;;;;;;4.93;1.20;;;;;;;12.63;100.00;101126.06;5410723;26;20119;-77
2024/04/08 02:23:42;;;;;;;7.95;1.30;;;;;;;12.63;100.00;101124.19;5423179;26;20460;-78
2024/04/08 02:26:08;;;;;;;;;;;;;;;12.63;100.00;101132.25;5442715;26;19999;-75
2024/04/08 02:28:37;;;;;;;4.55;1.20;;;;;;;12.61;100.00;101126.34;5403420;26;19932;-77
2024/04/08 02:31:04;;;;;;;2.55;1.65;;;;;;;12.57;100.00;101130.66;5410911;26;20023;-76
2024/04/08 02:33:42;;;;;;;4.25;1.40;;;;;;;12.56;100.00;101142.47;5444926;26;20006;-80
2024/04/08 02:36:07;;;;;;;2.78;1.52;;;;;;;12.55;100.00;101146.25;5413977;26;20537;-81
2024/04/08 02:38:33;;;;;;;4.18;1.63;;;;;;;12.52;100.00;101149.44;5422244;26;20006;-76
2024/04/08 02:40:59;;;;;;;3.30;1.60;;;;;;;12.48;100.00;101162.63;5395257;26;20068;-79
2024/04/08 02:43:25;;;;;;;;;;;;;;;12.51;100.00;101178.19;5392288;26;20109;-78
2024/04/08 02:45:52;;;;;;;3.75;1.63;;;;;;;12.50;100.00;101186.53;5414156;26;19967;-79
2024/04/08 02:48:22;;;;;;;3.78;1.83;;;;;;;12.50;100.00;101186.53;5419006;26;20014;-77
2024/04/08 02:50:48;;;;;;;3.08;1.58;;;;;;;12.49;100.00;101183.06;5423360;26;20034;-77
2024/04/08 02:53:14;;;;;;;6.95;2.17;;;;;;;12.51;100.00;101182.78;5438743;26;20007;-75
2024/04/08 02:55:39;;;;;;;5.85;1.70;;;;;;;12.49;100.00;101198.38;5400127;26;20073;-78
2024/04/08 02:58:05;;;;;;;4.90;1.60;;;;;;;12.49;100.00;101204.53;5432602;26;20281;-78
2024/04/08 03:00:31;;;;;;;;;;;;;;;12.50;100.00;101200.78;5431130;26;20367;-78
2024/04/08 03:02:56;;;;;;;4.55;1.20;;;;;;;12.49;100.00;101199.16;5398251;26;20281;-78
2024/04/08 03:05:22;;;;;;;;;;;;;;;12.51;100.00;101198.91;5404078;26;20025;-77
2024/04/08 03:07:51;;;;;;;2.22;1.40;;;;;;;12.47;100.00;101190.59;5396342;26;19925;-76
2024/04/08 03:10:17;;;;;;;3.35;1.95;;;;;;;12.48;100.00;101183.31;5429561;26;20047;-78
2024/04/08 03:12:43;;;;;;;4.97;1.60;;;;;;;12.48;100.00;101189.50;5393996;26;20006;-77
2024/04/08 03:15:09;;;;;;;4.07;1.58;;;;;;;12.47;100.00;101187.09;5431759;26;20521;-77
2024/04/08 03:17:35;;;;;;;3.30;1.80;;;;;;;12.44;100.00;101190.31;5398421;26;20047;-76
2024/04/08 03:20:00;;;;;;;;;;;;;;;12.44;100.00;101195.69;5371597;26;20022;-74
2024/04/08 03:22:26;;;;;;;4.90;2.20;;;;;;;12.41;100.00;101206.97;5394913;26;20007;-74
2024/04/08 03:24:51;;;;;;;4.63;1.40;;;;;;;12.43;100.00;101212.88;5379434;26;20022;-78
2024/04/08 03:27:17;;;;;;;6.07;1.80;;;;;;;12.45;100.00;101221.47;5422321;26;20021;-77
2024/04/08 03:29:43;;;;;;;3.25;1.90;;;;;;;12.46;100.00;101225.75;5400367;26;20004;-76
2024/04/08 03:32:08;;;;;;;5.35;2.03;;;;;;;12.44;100.00;101220.66;5435920;26;20038;-77
2024/04/08 03:34:35;;;;;;;3.95;2.03;;;;;;;12.43;100.00;101220.94;5420618;26;20003;-75
2024/04/08 03:37:03;;;;;;;3.97;1.52;;;;;;;12.42;100.00;101222.00;5400831;26;20007;-79
2024/04/08 03:39:29;;;;;;;4.93;2.67;;;;;;;12.42;100.00;101225.50;5424127;26;20003;-80
2024/04/08 03:41:55;;;;;;;;;;;;;;;12.43;100.00;101220.94;5377111;26;20063;-79
2024/04/08 03:44:21;;;;;;;10.23;2.97;;;;;;;12.41;100.00;101228.47;5437081;26;19924;-76
2024/04/08 03:46:48;;;;;;;2.65;1.70;;;;;;;12.41;100.00;101226.59;5375756;26;20047;-79
2024/04/08 03:49:14;;;;;;;4.70;1.80;;;;;;;12.41;100.00;101217.72;5397156;26;20106;-79
2024/04/08 03:51:40;;;;;;;6.38;1.75;;;;;;;12.42;100.00;101208.59;5409566;26;20018;-77
2024/04/08 03:54:06;;;;;;;4.70;1.90;;;;;;;12.44;100.00;101219.84;5369332;26;20003;-78
2024/04/08 03:56:32;;;;;;;6.47;2.17;;;;;;;12.45;100.00;101218.78;5429228;26;20096;-79
2024/04/08 03:58:58;;;;;;;;;;;;;;;12.47;100.00;101222.81;5430422;26;20003;-76
2024/04/08 04:01:24;;;;;;;2.97;2.00;;;;;;;12.45;100.00;101208.03;5378776;26;20864;-76
2024/04/08 04:03:49;;;;;;;4.93;1.80;;;;;;;12.44;100.00;101211.78;5404270;26;20526;-78
2024/04/08 04:06:15;;;;;;;4.95;1.95;;;;;;;12.42;100.00;101208.59;5400374;26;20014;-78
2024/04/08 04:08:41;;;;;;;3.35;1.73;;;;;;;12.42;100.00;101209.38;5368834;26;20356;-78
2024/04/08 04:11:06;;;;;;;3.90;1.58;;;;;;;12.42;100.00;101208.59;5402661;26;20491;-76
2024/04/08 04:13:32;;;;;;;3.70;2.05;;;;;;;12.44;100.00;101209.09;5426360;26;20047;-78
2024/04/08 04:15:58;;;;;;;2.78;1.90;;;;;;;12.45;100.00;101202.66;5398418;26;20013;-76
2024/04/08 04:18:23;;;;;;;4.80;2.22;;;;;;;12.43;100.00;101202.13;5421339;26;20007;-75
2024/04/08 04:20:49;;;;;;;;;;;;;;;12.45;100.00;101194.59;5370068;26;20365;-76
2024/04/08 04:23:16;;;;;;;3.90;1.70;;;;;;;12.42;100.00;101193.28;5431107;26;19936;-74
2024/04/08 04:25:42;;;;;;;3.78;1.40;;;;;;;12.43;100.00;101191.38;5401682;26;20012;-77
2024/04/08 04:28:07;;;;;;;;;;;;;;;12.43;100.00;101189.50;5369936;26;20018;-77
2024/04/08 04:30:33;;;;;;;3.55;1.80;;;;;;;12.41;100.00;101196.22;5403043;26;19924;-77
2024/04/08 04:33:00;;;;;;;;;;;;;;;12.43;100.00;101188.69;5396668;26;20539;-79
2024/04/08 04:35:29;;;;;;;4.82;2.28;;;;;;;12.41;100.00;101185.50;5430492;26;19970;-78
2024/04/08 04:37:56;;;;;;;10.77;1.80;;;;;;;12.40;100.00;101179.31;5430848;26;20008;-79
2024/04/08 04:40:22;;;;;;;6.65;1.88;;;;;;;12.39;100.00;101166.13;5431485;26;20007;-80
2024/04/08 04:42:48;;;;;;;3.13;1.80;;;;;;;12.41;100.00;101174.75;5404630;26;19999;-77
2024/04/08 04:45:16;;;;;;;4.18;2.03;;;;;;;12.41;100.00;101182.81;5403867;26;20022;-80
2024/04/08 04:47:43;;;;;;;3.63;2.20;;;;;;;12.40;100.00;101189.25;5381289;26;20784;-79
2024/04/08 04:50:09;;;;;;;6.07;2.60;;;;;;;12.40;100.00;101187.38;5402151;26;20581;-78
2024/04/08 04:52:36;;;;;;;5.65;2.70;;;;;;;12.41;100.00;101193.53;5424691;26;20007;-78
2024/04/08 04:55:01;;;;;;;7.20;2.22;;;;;;;12.39;100.00;101187.63;5401864;26;20007;-78
2024/04/08 04:57:27;;;;;;;;;;;;;;;12.39;100.00;101184.94;5458612;26;20050;-78
2024/04/08 04:59:53;;;;;;;3.95;2.00;;;;;;;12.36;100.00;101177.44;5404503;26;20013;-77
2024/04/08 05:02:18;;;;;;;4.78;2.17;;;;;;;12.36;100.00;101166.69;5370417;26;20000;-77
2024/04/08 05:04:44;;;;;;;8.35;2.38;;;;;;;12.33;100.00;101162.69;5430195;26;20003;-80
2024/04/08 05:07:09;;;;;;;7.15;2.70;;;;;;;12.35;100.00;101175.81;5435478;26;20021;-78
2024/04/08 05:09:36;;;;;;;;;;;;;;;12.36;100.00;101177.44;5399761;26;19999;-79
2024/04/08 05:12:02;;;;;;;3.58;1.90;;;;;;;12.34;100.00;101163.47;5375227;26;20005;-79
2024/04/08 05:14:28;;;;;;;5.85;2.28;;;;;;;12.35;100.00;101162.41;5434372;26;20730;-78
2024/04/08 05:16:54;;;;;;;;;;;;;;;12.38;100.00;101169.91;5397455;26;20004;-78
2024/04/08 05:19:21;;;;;;;4.97;2.22;;;;;;;12.36;100.00;101155.94;5431929;26;19937;-79
2024/04/08 05:21:47;;;;;;;4.43;2.55;;;;;;;12.35;100.00;101154.34;5391787;26;20088;-79
2024/04/08 05:24:13;;;;;;;;;;;;;;;12.37;100.00;101158.34;5438599;26;20083;-77
2024/04/08 05:26:39;;;;;;;6.60;2.80;;;;;;;12.33;100.00;101160.00;5418123;26;19953;-79
2024/04/08 05:29:04;;;;;;;4.75;2.63;;;;;;;12.29;100.00;101151.66;5367861;26;20007;-77
2024/04/08 05:31:30;;;;;;;7.72;3.40;;;;;;;12.31;100.00;101154.06;5404450;26;20003;-78
2024/04/08 05:33:56;;;;;;;6.63;3.42;;;;;;;12.30;100.00;101155.94;5405483;26;20551;-77
2024/04/08 05:36:21;;;;;;;6.93;3.55;;;;;;;12.29;100.00;101146.28;5402835;26;20086;-78
2024/04/08 05:38:47;;;;;;;;;;;;;;;12.32;100.00;101144.13;5433918;26;20018;-78
2024/04/08 05:41:15;;;;;;;5.82;3.15;;;;;;;12.28;100.00;101144.69;5429698;26;19925;-77
2024/04/08 05:43:41;;;;;;;5.13;2.80;;;;;;;12.26;100.00;101128.03;5372283;26;21400;-79
2024/04/08 05:46:07;;;;;;;5.50;3.13;;;;;;;12.28;100.00;101117.81;5407086;26;20007;-79
2024/04/08 05:48:34;;;;;;;;;;;;;;;12.32;100.00;101125.31;5398767;26;20475;-77
2024/04/08 05:50:59;;;;;;;5.10;3.03;;;;;;;12.29;100.00;101130.16;5428270;26;19930;-80
2024/04/08 05:53:25;;;;;;;5.53;2.78;;;;;;;12.29;100.00;101129.38;5433058;26;19998;-76
2024/04/08 05:55:51;;;;;;;7.07;3.00;;;;;;;12.29;100.00;101132.84;5439942;26;20010;-78
2024/04/08 05:58:16;;;;;;;;;;;;;;;12.27;100.00;101126.97;5435664;26;20003;-79
2024/04/08 06:00:43;;;;;;;4.95;2.80;;;;;;;12.24;100.00;101113.25;5425810;26;19939;-75
2024/04/08 06:03:09;;;;;;;7.57;3.08;;;;;;;12.24;100.00;101116.75;5426970;26;20422;-80
2024/04/08 06:05:34;;;;;;;4.93;3.38;;;;;;;12.25;100.00;101117.53;5378923;26;20000;-75
2024/04/08 06:08:00;;;;;;;6.78;3.38;;;;;;;12.25;100.00;101123.72;5380461;26;19995;-78
2024/04/08 06:10:30;;;;;;;;;;;;;;;12.28;100.00;101117.03;5402156;26;20003;-77
2024/04/08 06:12:57;;;;;;;;;;;;;;;12.30;100.00;101110.28;5403578;26;20014;-81
2024/04/08 06:15:23;;;;;;;4.75;2.70;;;;;;;12.33;100.00;101118.88;5439757;26;20650;-78
2024/04/08 06:17:49;;;;;;;;;;;;;;;12.39;100.00;101133.91;5429208;26;20455;-79
2024/04/08 06:20:14;;;;;;;4.72;2.90;;;;;;;12.41;100.00;101142.50;5378154;26;19925;-81
2024/04/08 06:22:40;;;;;;;5.70;2.75;;;;;;;12.40;100.00;101143.59;5404616;26;20071;-79
2024/04/08 06:25:09;;;;;;;6.78;2.92;;;;;;;12.40;100.00;101130.16;5404057;26;20023;-80
2024/04/08 06:27:35;;;;;;;6.32;3.70;;;;;;;12.41;100.00;101127.19;5396046;26;20030;-78
2024/04/08 06:30:01;;;;;;;7.90;3.47;;;;;;;12.41;100.00;101126.41;5409932;26;20079;-79
2024/04/08 06:32:27;;;;;;;5.47;3.22;;;;;;;12.46;100.00;101121.00;5403988;26;20002;-80
2024/04/08 06:34:53;;;;;;;6.18;3.10;;;;;;;12.53;100.00;101124.19;5434324;26;19999;-80
2024/04/08 06:37:18;;;;;;;;;;;;;;;12.64;100.00;101125.78;5385861;26;19999;-77
2024/04/08 06:39:44;;;;;;;5.05;2.75;;;;;;;12.75;100.00;101121.19;5364193;26;20090;-80
2024/04/08 06:42:18;;;;;;;5.47;2.70;;;;;;;12.82;100.00;101110.94;5435233;26;20454;-77
2024/04/08 06:44:50;;;;;;;5.60;2.40;;;;;;;12.86;100.00;101117.38;5430399;26;20003;-79
2024/04/08 06:47:16;;;;;;;4.93;2.50;;;;;;;12.92;100.00;101102.03;5436956;26;20007;-78
2024/04/08 06:49:44;;;;;;;4.78;2.42;;;;;;;12.93;100.00;101100.94;5458847;26;20536;-80
2024/04/08 06:52:09;;;;;;;7.55;2.50;;;;;;;12.97;100.00;101102.00;5438683;26;20786;-81
2024/04/08 06:54:37;;;;;;;4.35;2.58;;;;;;;13.05;100.00;101114.88;5420944;26;20011;-78
2024/04/08 06:57:03;;;;;;;5.25;1.95;;;;;;;13.13;100.00;101100.84;5406397;26;20017;-79
2024/04/08 06:59:29;;;;;;;4.50;1.92;;;;;;;13.24;100.00;101101.63;5375578;26;20471;-78
2024/04/08 07:01:54;;;;;;;4.32;1.60;;;;;;;13.26;100.00;101100.25;5440502;26;20007;-79
2024/04/08 07:04:21;;;;;;;;;;;;;;;13.30;100.00;101095.94;5435756;26;20025;-80
2024/04/08 07:06:47;;;;;;;3.72;1.50;;;;;;;13.34;100.00;101086.22;5404230;26;19944;-77
2024/04/08 07:09:12;;;;;;;;;;;;;;;13.38;100.00;101086.47;5400858;26;20053;-79
2024/04/08 07:11:38;;;;;;;6.30;2.08;;;;;;;13.40;100.00;101084.28;5433009;26;19924;-78
2024/04/08 07:14:03;;;;;;;5.85;2.33;;;;;;;13.41;100.00;101085.09;5409209;26;19998;-77
2024/04/08 07:16:29;;;;;;;10.38;2.38;;;;;;;13.49;100.00;101090.69;5380048;26;20087;-79
2024/04/08 07:18:55;;;;;;;6.20;1.98;;;;;;;13.58;100.00;101080.13;5371897;26;20459;-79
2024/04/08 07:21:24;;;;;;;3.92;1.45;;;;;;;13.63;100.00;101082.78;5373457;26;20003;-79
2024/04/08 07:23:52;;;;;;;4.55;1.08;;;;;;;13.70;100.00;101085.97;5379115;26;20004;-76
2024/04/08 07:26:18;;;;;;;3.13;1.10;;;;;;;13.74;100.00;101078.91;5405753;26;20536;-78
2024/04/08 07:28:44;;;;;;;3.10;1.30;;;;;;;13.79;100.00;101054.66;5377118;26;19999;-77
2024/04/08 07:31:10;;;;;;;;;;;;;;;13.89;100.00;101054.56;5428931;26;20019;-80
2024/04/08 07:33:35;;;;;;;4.00;1.50;;;;;;;14.04;100.00;101061.69;5403880;26;20380;-81
2024/04/08 07:36:01;;;;;;;;;;;;;;;14.04;100.00;101060.88;5407646;26;20007;-76
2024/04/08 07:38:27;;;;;;;3.90;1.35;;;;;;;14.07;100.00;101063.78;5399566;26;19931;-78
2024/04/08 07:40:52;;;;;;;;;;;;;;;14.06;100.00;101053.31;5371392;26;20003;-78
2024/04/08 07:43:18;;;;;;;2.35;1.20;;;;;;;14.11;100.00;101055.97;5401533;26;19924;-78
2024/04/08 07:45:44;;;;;;;;;;;;;;;14.20;100.00;101059.63;5395358;26;20076;-76
2024/04/08 07:48:09;;;;;;;2.17;0.88;;;;;;;14.26;100.00;101073.84;5392684;26;19940;-79
2024/04/08 07:50:38;;;;;;;4.10;1.20;;;;;;;14.31;100.00;101082.69;5425515;26;20371;-77
2024/04/08 07:53:06;;;;;;;2.97;1.10;;;;;;;14.38;100.00;101088.53;5415914;26;20007;-79
2024/04/08 07:55:32;;;;;;;2.97;0.95;;;;;;;14.40;100.00;101082.84;5426491;26;20003;-76
2024/04/08 07:57:57;;;;;;;3.80;0.98;;;;;;;14.41;100.00;101079.88;5397774;26;20418;-77
2024/04/08 08:00:23;;;;;;;2.40;0.90;;;;;;;14.48;100.00;101058.00;5408824;26;20453;-76
2024/04/08 08:02:49;;;;;;;3.15;1.30;;;;;;;14.61;100.00;101053.78;5431898;26;19999;-79
2024/04/08 08:05:15;;;;;;;;;;;;;;;14.67;100.00;101063.44;5435557;26;20360;-78
2024/04/08 08:07:41;;;;;;;4.28;1.65;;;;;;;14.74;100.00;101069.28;5421786;26;19932;-80
2024/04/08 08:10:07;;;;;;;2.65;1.20;;;;;;;14.73;100.00;101056.88;5407058;26;20075;-79
2024/04/08 08:12:34;;;;;;;3.83;1.30;;;;;;;14.87;100.00;101046.97;5357868;26;20085;-77
2024/04/08 08:15:00;;;;;;;3.72;0.90;;;;;;;14.87;100.00;101025.41;5437767;26;20363;-80
2024/04/08 08:17:26;;;;;;;;;;;;;;;14.88;100.00;101027.00;5430984;26;19994;-77
2024/04/08 08:19:52;;;;;;;3.10;1.08;;;;;;;14.90;100.00;101002.44;5392825;26;20666;-79
2024/04/08 08:22:18;;;;;;;4.65;1.23;;;;;;;15.00;100.00;100995.03;5426079;26;20026;-74
2024/04/08 08:24:44;;;;;;;;;;;;;;;15.10;100.00;100977.88;5403970;26;20084;-79
2024/04/08 08:27:09;;;;;;;7.38;1.40;;;;;;;15.19;100.00;100978.03;5436719;26;20456;-77
2024/04/08 08:29:35;;;;;;;3.42;1.25;;;;;;;15.26;100.00;101008.13;5431222;26;20011;-73
2024/04/08 08:32:01;;;;;;;3.70;1.10;;;;;;;15.39;100.00;101018.16;5424184;26;19994;-79
2024/04/08 08:34:27;;;;;;;4.38;1.00;;;;;;;15.49;100.00;101017.19;5394983;26;20362;-78
2024/04/08 08:36:53;;;;;;;3.65;1.20;;;;;;;15.60;100.00;101034.03;5417344;26;20007;-77
2024/04/08 08:39:19;;;;;;;5.18;1.17;;;;;;;15.65;100.00;101045.56;5434630;26;20010;-75
2024/04/08 08:41:51;;;;;;;3.45;1.13;;;;;;;15.70;100.00;101041.97;5430005;26;20003;-73
2024/04/08 08:44:19;;;;;;;3.17;0.90;;;;;;;15.82;100.00;101039.59;5423627;26;20011;-76
2024/04/08 08:46:47;;;;;;;3.22;1.23;;;;;;;15.93;100.00;101041.03;5427547;26;20022;-77
2024/04/08 08:49:15;;;;;;;2.88;1.05;;;;;;;15.90;100.00;101036.19;5438813;26;20003;-77
2024/04/08 08:51:40;;;;;;;3.05;1.20;;;;;;;15.97;100.00;101047.41;5405372;26;20007;-76
2024/04/08 08:54:07;;;;;;;;;;;;;;;16.00;100.00;101035.22;5400275;26;20003;-77
2024/04/08 08:56:33;;;;;;;3.45;1.10;;;;;;;16.04;100.00;101036.22;5428106;26;19925;-78
2024/04/08 08:59:00;;;;;;;;;;;;;;;16.13;100.00;101044.44;5432536;26;20007;-78
2024/04/08 09:01:28;;;;;;;4.60;0.80;;;;;;;16.21;100.00;101046.44;5473180;26;19933;-75
2024/04/08 09:03:54;;;;;;;3.38;1.20;;;;;;;16.17;100.00;101048.94;5436308;26;20034;-78
2024/04/08 09:06:20;;;;;;;2.90;0.85;;;;;;;16.26;100.00;101043.66;5425588;26;20004;-76
2024/04/08 09:08:46;;;;;;;3.10;1.42;;;;;;;16.27;100.00;101045.25;5425127;26;20022;-77
2024/04/08 09:11:11;;;;;;;;;;;;;;;16.34;100.00;101043.75;5401046;26;19999;-79
2024/04/08 09:13:38;;;;;;;2.47;1.20;;;;;;;16.25;100.00;101044.72;5434588;26;19953;-76
2024/04/08 09:16:03;;;;;;;;;;;;;;;16.23;100.00;101045.03;5400349;26;20368;-77
2024/04/08 09:18:29;;;;;;;11.45;1.30;;;;;;;16.24;100.00;101051.25;5439669;26;20381;-79
2024/04/08 09:20:55;;;;;;;;;;;;;;;16.27;100.00;101045.25;5455297;26;20014;-77
2024/04/08 09:23:21;;;;;;;2.33;0.98;;;;;;;16.28;100.00;101046.84;5389110;26;20701;-77
2024/04/08 09:25:46;;;;;;;;;;;;;;;16.34;100.00;101034.84;5394817;26;20575;-78
2024/04/08 09:28:13;;;;;;;4.43;1.42;;;;;;;16.34;100.00;101041.06;5425531;26;19932;-79
2024/04/08 09:30:40;;;;;;;2.80;1.20;;;;;;;16.33;100.00;101044.06;5401874;26;20012;-77
2024/04/08 09:33:09;;;;;;;3.58;1.17;;;;;;;16.37;100.00;101051.25;5373287;26;20076;-80
2024/04/08 09:35:40;;;;;;;3.08;1.10;;;;;;;16.37;100.00;101053.94;5425229;26;20018;-79
2024/04/08 09:38:12;;;;;;;3.58;0.85;;;;;;;16.40;100.00;101044.47;5379605;26;20003;-77
2024/04/08 09:40:39;;;;;;;2.90;1.05;;;;;;;16.44;100.00;101041.94;5454431;26;19998;-75
2024/04/08 09:43:07;;;;;;;3.60;1.10;;;;;;;16.44;100.00;101050.84;5376292;26;20007;-77
2024/04/08 09:45:35;;;;;;;2.45;0.90;;;;;;;16.44;100.00;101045.44;5405642;26;20040;-76
2024/04/08 09:48:01;;;;;;;2.40;0.90;;;;;;;16.45;100.00;101049.75;5368436;26;20003;-77
2024/04/08 09:50:28;;;;;;;2.15;0.93;;;;;;;16.50;100.00;101059.66;5435456;26;20003;-76
2024/04/08 09:52:55;;;;;;;4.82;1.70;;;;;;;16.57;100.00;101065.47;5425391;26;20007;-77
2024/04/08 09:55:29;;;;;;;3.22;1.13;;;;;;;16.62;100.00;101052.63;5423292;26;20052;-75
2024/04/08 09:58:00;;;;;;;4.97;1.45;;;;;;;16.69;100.00;101046.03;5423954;26;20023;-77
2024/04/08 10:00:30;;;;;;;3.65;1.10;;;;;;;16.81;100.00;101043.63;5434922;26;20047;-77
2024/04/08 10:03:03;;;;;;;2.88;1.10;;;;;;;16.86;100.00;101046.22;5402272;26;20011;-76
2024/04/08 10:05:31;;;;;;;3.05;1.20;;;;;;;16.96;100.00;101040.59;5422395;26;20545;-77
2024/04/08 10:07:58;;;;;;;3.30;1.25;;;;;;;17.01;100.00;101040.47;5404790;26;20018;-76
2024/04/08 10:10:25;;;;;;;3.22;0.90;;;;;;;17.07;100.00;101047.38;5398718;26;20010;-79
2024/04/08 10:12:52;;;;;;;2.55;1.40;;;;;;;17.12;100.00;101030.22;5400675;26;20003;-78
2024/04/08 10:15:20;;;;;;;4.10;1.40;;;;;;;17.14;100.00;101045.03;5401181;26;20008;-76
2024/04/08 10:17:51;;;;;;;3.03;1.48;;;;;;;17.15;100.00;101038.53;5423362;26;20438;-80
2024/04/08 10:20:18;;;;;;;4.35;1.35;;;;;;;17.18;100.00;101031.69;5424729;26;20011;-77
2024/04/08 10:22:45;;;;;;;3.67;1.25;;;;;;;17.24;100.00;101032.38;5436499;26;20018;-78
2024/04/08 10:25:36;;;;;;;6.78;1.10;;;;;;;17.34;100.00;101024.00;5430848;26;20079;-79
2024/04/08 10:28:10;;;;;;;8.27;1.20;;;;;;;17.42;100.00;101015.94;5404497;26;20013;-78
2024/04/08 10:30:39;;;;;;;3.42;0.93;;;;;;;17.48;100.00;101005.81;5425762;26;20039;-78
2024/04/08 10:33:06;;;;;;;2.30;1.30;;;;;;;17.50;100.00;101006.28;5400085;26;20025;-77
2024/04/08 10:35:31;;;;;;;5.22;1.10;;;;;;;17.57;100.00;101001.22;5435164;26;20039;-78
2024/04/08 10:37:57;;;;;;;3.70;1.70;;;;;;;17.65;100.00;100986.13;5402223;26;20022;-80
2024/04/08 10:40:23;;;;;;;3.67;1.35;;;;;;;17.69;100.00;100987.91;5421628;26;20007;-77
2024/04/08 10:42:52;;;;;;;5.88;1.80;;;;;;;17.65;100.00;100986.94;5396071;26;20081;-77
2024/04/08 10:45:19;;;;;;;2.85;1.10;;;;;;;17.75;100.00;100985.91;5374676;26;20464;-77
2024/04/08 10:47:46;;;;;;;3.60;1.25;;;;;;;17.86;100.00;100989.91;5392953;26;20514;-77
2024/04/08 10:50:12;;;;;;;4.47;1.20;;;;;;;17.91;100.00;100978.94;5408558;26;20013;-78
2024/04/08 10:52:41;;;;;;;4.32;1.42;;;;;;;17.93;100.00;100968.59;5427553;26;20000;-77
2024/04/08 10:55:10;;;;;;;3.22;1.40;;;;;;;17.87;100.00;100966.34;5405491;26;20003;-75
2024/04/08 10:57:35;;;;;;;3.45;1.35;;;;;;;17.90;100.00;100961.09;5403781;26;20791;-78
2024/04/08 11:00:03;;;;;;;3.47;1.25;;;;;;;18.04;100.00;100966.41;5432704;26;20007;-77
2024/04/08 11:02:30;;;;;;;4.53;1.35;;;;;;;18.17;100.00;100965.50;5408582;26;20085;-80
2024/04/08 11:04:56;;;;;;;3.72;1.33;;;;;;;18.22;100.00;100957.22;5431459;26;20072;-78
2024/04/08 11:07:22;;;;;;;2.53;1.20;;;;;;;18.33;100.00;100956.91;5437060;26;20011;-75
2024/04/08 11:09:48;;;;;;;3.65;1.67;;;;;;;18.33;100.00;100951.50;5425828;26;20004;-77
2024/04/08 11:12:14;;;;;;;3.28;1.27;;;;;;;18.47;100.00;100947.50;5433937;26;20010;-78
2024/04/08 11:14:45;;;;;;;3.58;1.42;;;;;;;18.60;100.00;100951.19;5427995;26;21362;-78
2024/04/08 11:17:14;;;;;;;5.70;1.45;;;;;;;18.72;100.00;100950.59;5395479;26;20449;-75
2024/04/08 11:19:43;;;;;;;4.35;1.63;;;;;;;18.91;100.00;100950.28;5436140;26;20022;-78
2024/04/08 11:22:10;;;;;;;5.10;1.55;;;;;;;19.00;100.00;100953.78;5438947;26;20479;-75
2024/04/08 11:24:40;;;;;;;4.90;1.15;;;;;;;19.09;100.00;100957.28;5433604;26;20078;-75
2024/04/08 11:27:08;;;;;;;4.80;1.17;;;;;;;19.01;100.00;100956.16;5407375;26;20014;-78